sensor_id;sensor_type;location;lat;lon;timestamp;pressure;altitude;pressure_sealevel;temperature;humidity
21395;BME280;10858;42.714;23.180;2022-08-03T00:00:53;94433.47;;;16.48;81.76
21395;BME280;10858;42.714;23.180;2022-08-03T00:03:19;94424.97;;;16.44;81.50
21395;BME280;10858;42.714;23.180;2022-08-03T00:05:46;94430.00;;;16.47;81.26
21395;BME280;10858;42.714;23.180;2022-08-03T00:08:12;94424.63;;;16.47;81.18
21395;BME280;10858;42.714;23.180;2022-08-03T00:10:39;94430.13;;;16.46;81.17
21395;BME280;10858;42.714;23.180;2022-08-03T00:13:05;94424.97;;;16.36;81.64
21395;BME280;10858;42.714;23.180;2022-08-03T00:15:31;94431.00;;;16.38;81.49
21395;BME280;10858;42.714;23.180;2022-08-03T00:17:57;94429.16;;;16.39;81.85
21395;BME280;10858;42.714;23.180;2022-08-03T00:20:24;94430.31;;;16.36;81.89
21395;BME280;10858;42.714;23.180;2022-08-03T00:22:51;94430.00;;;16.39;82.11
21395;BME280;10858;42.714;23.180;2022-08-03T00:25:17;94434.31;;;16.48;81.69
21395;BME280;10858;42.714;23.180;2022-08-03T00:27:44;94433.34;;;16.41;81.64
21395;BME280;10858;42.714;23.180;2022-08-03T00:30:10;94430.81;;;16.40;82.25
21395;BME280;10858;42.714;23.180;2022-08-03T00:32:37;94434.69;;;16.45;82.11
21395;BME280;10858;42.714;23.180;2022-08-03T00:35:03;94427.84;;;16.51;81.85
21395;BME280;10858;42.714;23.180;2022-08-03T00:37:30;94428.00;;;16.57;81.93
21395;BME280;10858;42.714;23.180;2022-08-03T00:39:56;94427.84;;;16.51;82.21
21395;BME280;10858;42.714;23.180;2022-08-03T00:42:22;94423.81;;;16.55;81.76
21395;BME280;10858;42.714;23.180;2022-08-03T00:44:48;94429.31;;;16.45;81.92
21395;BME280;10858;42.714;23.180;2022-08-03T00:47:15;94432.81;;;16.38;82.54
21395;BME280;10858;42.714;23.180;2022-08-03T00:49:42;94422.28;;;16.36;82.86
21395;BME280;10858;42.714;23.180;2022-08-03T00:52:09;94416.94;;;16.36;82.67
21395;BME280;10858;42.714;23.180;2022-08-03T00:54:37;94423.81;;;16.39;82.36
21395;BME280;10858;42.714;23.180;2022-08-03T00:57:04;94427.63;;;16.36;82.53
21395;BME280;10858;42.714;23.180;2022-08-03T00:59:30;94424.78;;;16.30;82.44
21395;BME280;10858;42.714;23.180;2022-08-03T01:01:57;94422.97;;;16.30;82.79
21395;BME280;10858;42.714;23.180;2022-08-03T01:04:24;94426.50;;;16.23;82.71
21395;BME280;10858;42.714;23.180;2022-08-03T01:12:21;94422.97;;;15.90;83.54
21395;BME280;10858;42.714;23.180;2022-08-03T01:15:30;94422.97;;;15.90;83.24
21395;BME280;10858;42.714;23.180;2022-08-03T01:18:10;94424.47;;;16.16;82.22
21395;BME280;10858;42.714;23.180;2022-08-03T01:20:43;94419.44;;;16.30;81.82
21395;BME280;10858;42.714;23.180;2022-08-03T01:29:06;94421.81;;;16.25;81.26
21395;BME280;10858;42.714;23.180;2022-08-03T01:31:47;94423.31;;;16.19;81.13
21395;BME280;10858;42.714;23.180;2022-08-03T01:34:15;94430.00;;;16.15;81.21
21395;BME280;10858;42.714;23.180;2022-08-03T01:36:50;94423.81;;;16.06;81.36
21395;BME280;10858;42.714;23.180;2022-08-03T01:39:18;94422.28;;;15.96;81.46
21395;BME280;10858;42.714;23.180;2022-08-03T01:41:56;94423.13;;;15.96;81.96
21395;BME280;10858;42.714;23.180;2022-08-03T01:44:28;94428.13;;;15.91;82.19
21395;BME280;10858;42.714;23.180;2022-08-03T01:46:59;94422.28;;;15.88;82.37
21395;BME280;10858;42.714;23.180;2022-08-03T01:49:29;94429.66;;;15.94;81.98
21395;BME280;10858;42.714;23.180;2022-08-03T01:51:56;94428.31;;;15.90;82.08
21395;BME280;10858;42.714;23.180;2022-08-03T01:54:25;94426.28;;;15.76;82.48
21395;BME280;10858;42.714;23.180;2022-08-03T01:56:54;94427.59;;;15.64;83.08
21395;BME280;10858;42.714;23.180;2022-08-03T01:59:22;94421.59;;;15.70;83.19
21395;BME280;10858;42.714;23.180;2022-08-03T02:01:50;94424.28;;;15.78;82.44
21395;BME280;10858;42.714;23.180;2022-08-03T02:04:18;94430.28;;;15.72;82.47
21395;BME280;10858;42.714;23.180;2022-08-03T02:06:46;94426.28;;;15.68;83.33
21395;BME280;10858;42.714;23.180;2022-08-03T02:09:14;94428.59;;;15.55;83.99
21395;BME280;10858;42.714;23.180;2022-08-03T02:11:43;94425.94;;;15.63;83.76
21395;BME280;10858;42.714;23.180;2022-08-03T02:14:10;94428.66;;;15.79;83.24
21395;BME280;10858;42.714;23.180;2022-08-03T02:16:36;94421.59;;;15.70;83.34
21395;BME280;10858;42.714;23.180;2022-08-03T02:19:05;94421.25;;;15.57;83.87
21395;BME280;10858;42.714;23.180;2022-08-03T02:21:34;94417.25;;;15.53;83.93
21395;BME280;10858;42.714;23.180;2022-08-03T02:24:01;94424.75;;;15.57;84.01
21395;BME280;10858;42.714;23.180;2022-08-03T02:26:30;94430.78;;;15.75;83.47
21395;BME280;10858;42.714;23.180;2022-08-03T02:29:04;94433.31;;;15.69;83.62
21395;BME280;10858;42.714;23.180;2022-08-03T02:31:34;94428.63;;;15.71;83.78
21395;BME280;10858;42.714;23.180;2022-08-03T02:34:07;94417.59;;;15.74;83.72
21395;BME280;10858;42.714;23.180;2022-08-03T02:36:37;94423.31;;;15.87;83.45
21395;BME280;10858;42.714;23.180;2022-08-03T02:39:05;94420.94;;;15.84;83.44
21395;BME280;10858;42.714;23.180;2022-08-03T02:41:47;94416.75;;;15.73;84.31
21395;BME280;10858;42.714;23.180;2022-08-03T02:44:14;94411.94;;;15.77;84.13
21395;BME280;10858;42.714;23.180;2022-08-03T02:46:44;94412.25;;;15.74;84.06
21395;BME280;10858;42.714;23.180;2022-08-03T02:49:12;94408.88;;;15.56;84.49
21395;BME280;10858;42.714;23.180;2022-08-03T02:51:39;94410.31;;;15.34;84.84
21395;BME280;10858;42.714;23.180;2022-08-03T02:54:06;94416.97;;;15.30;84.92
21395;BME280;10858;42.714;23.180;2022-08-03T02:56:35;94416.41;;;15.10;85.15
21395;BME280;10858;42.714;23.180;2022-08-03T02:59:04;94419.25;;;15.09;85.39
21395;BME280;10858;42.714;23.180;2022-08-03T03:01:31;94422.06;;;15.07;85.07
21395;BME280;10858;42.714;23.180;2022-08-03T03:03:58;94426.09;;;15.11;85.00
21395;BME280;10858;42.714;23.180;2022-08-03T03:06:25;94423.97;;;15.23;84.49
21395;BME280;10858;42.714;23.180;2022-08-03T03:08:52;94428.50;;;15.30;84.47
21395;BME280;10858;42.714;23.180;2022-08-03T03:11:20;94429.75;;;15.44;84.13
21395;BME280;10858;42.714;23.180;2022-08-03T03:13:48;94431.59;;;15.52;83.90
21395;BME280;10858;42.714;23.180;2022-08-03T03:16:15;94434.44;;;15.50;83.63
21395;BME280;10858;42.714;23.180;2022-08-03T03:18:43;94442.47;;;15.50;83.70
21395;BME280;10858;42.714;23.180;2022-08-03T03:21:10;94442.97;;;15.54;83.64
21395;BME280;10858;42.714;23.180;2022-08-03T03:23:39;94442.97;;;15.54;83.36
21395;BME280;10858;42.714;23.180;2022-08-03T03:26:07;94443.81;;;15.54;83.59
21395;BME280;10858;42.714;23.180;2022-08-03T03:28:34;94446.50;;;15.62;83.84
21395;BME280;10858;42.714;23.180;2022-08-03T03:31:07;94441.28;;;15.45;85.25
21395;BME280;10858;42.714;23.180;2022-08-03T03:33:35;94443.63;;;15.48;85.33
21395;BME280;10858;42.714;23.180;2022-08-03T03:36:03;94445.97;;;15.51;84.88
21395;BME280;10858;42.714;23.180;2022-08-03T03:38:30;94449.47;;;15.43;85.25
21395;BME280;10858;42.714;23.180;2022-08-03T03:40:56;94457.00;;;15.56;85.46
21395;BME280;10858;42.714;23.180;2022-08-03T03:43:23;94455.69;;;15.68;85.06
21395;BME280;10858;42.714;23.180;2022-08-03T03:45:50;94462.22;;;15.81;84.71
21395;BME280;10858;42.714;23.180;2022-08-03T03:48:19;94460.59;;;15.96;84.43
21395;BME280;10858;42.714;23.180;2022-08-03T03:50:45;94455.56;;;15.93;84.58
21395;BME280;10858;42.714;23.180;2022-08-03T03:53:14;94467.47;;;16.07;84.37
21395;BME280;10858;42.714;23.180;2022-08-03T03:55:41;94471.63;;;16.09;83.70
21395;BME280;10858;42.714;23.180;2022-08-03T03:58:07;94475.84;;;16.20;83.20
21395;BME280;10858;42.714;23.180;2022-08-03T04:00:34;94475.34;;;16.16;82.96
21395;BME280;10858;42.714;23.180;2022-08-03T04:03:00;94476.84;;;16.19;83.57
21395;BME280;10858;42.714;23.180;2022-08-03T04:05:26;94478.88;;;16.25;83.58
21395;BME280;10858;42.714;23.180;2022-08-03T04:08:20;94479.84;;;16.32;83.48
21395;BME280;10858;42.714;23.180;2022-08-03T04:13:41;94475.34;;;16.73;84.61
21395;BME280;10858;42.714;23.180;2022-08-03T04:16:11;94469.63;;;17.77;81.58
21395;BME280;10858;42.714;23.180;2022-08-03T04:18:40;94469.34;;;19.73;75.82
21395;BME280;10858;42.714;23.180;2022-08-03T04:21:11;94467.56;;;21.62;70.07
21395;BME280;10858;42.714;23.180;2022-08-03T04:23:43;94469.41;;;22.76;61.48
21395;BME280;10858;42.714;23.180;2022-08-03T04:26:13;94467.16;;;24.02;57.99
21395;BME280;10858;42.714;23.180;2022-08-03T04:28:44;94469.28;;;24.76;55.45
21395;BME280;10858;42.714;23.180;2022-08-03T04:31:13;94472.75;;;25.39;51.10
21395;BME280;10858;42.714;23.180;2022-08-03T04:33:41;94466.63;;;26.04;47.72
21395;BME280;10858;42.714;23.180;2022-08-03T04:36:11;94473.34;;;26.85;46.93
21395;BME280;10858;42.714;23.180;2022-08-03T04:38:52;94482.13;;;26.87;44.14
21395;BME280;10858;42.714;23.180;2022-08-03T04:41:21;94474.78;;;27.99;44.04
21395;BME280;10858;42.714;23.180;2022-08-03T04:43:48;94482.47;;;28.93;42.10
21395;BME280;10858;42.714;23.180;2022-08-03T04:46:16;94478.78;;;29.60;38.81
21395;BME280;10858;42.714;23.180;2022-08-03T04:48:44;94483.22;;;29.66;38.99
21395;BME280;10858;42.714;23.180;2022-08-03T04:51:11;94487.00;;;30.15;38.84
21395;BME280;10858;42.714;23.180;2022-08-03T04:53:38;94493.16;;;30.05;37.17
21395;BME280;10858;42.714;23.180;2022-08-03T04:56:05;94494.75;;;30.01;37.73
21395;BME280;10858;42.714;23.180;2022-08-03T04:58:31;94487.06;;;30.20;37.34
21395;BME280;10858;42.714;23.180;2022-08-03T05:00:58;94497.75;;;31.56;33.79
21395;BME280;10858;42.714;23.180;2022-08-03T05:03:25;94505.34;;;31.49;33.49
21395;BME280;10858;42.714;23.180;2022-08-03T05:05:52;94504.84;;;32.26;33.54
21395;BME280;10858;42.714;23.180;2022-08-03T05:08:18;94503.09;;;32.51;31.18
21395;BME280;10858;42.714;23.180;2022-08-03T05:10:45;94500.97;;;32.17;31.83
21395;BME280;10858;42.714;23.180;2022-08-03T05:13:12;94502.47;;;32.96;30.57
21395;BME280;10858;42.714;23.180;2022-08-03T05:15:40;94504.81;;;32.62;31.64
21395;BME280;10858;42.714;23.180;2022-08-03T05:18:06;94508.03;;;33.21;31.01
21395;BME280;10858;42.714;23.180;2022-08-03T05:20:33;94511.69;;;33.47;31.21
21395;BME280;10858;42.714;23.180;2022-08-03T05:22:59;94505.97;;;33.89;30.23
21395;BME280;10858;42.714;23.180;2022-08-03T05:25:27;94506.53;;;34.11;30.32
21395;BME280;10858;42.714;23.180;2022-08-03T05:27:53;94514.72;;;34.36;31.52
21395;BME280;10858;42.714;23.180;2022-08-03T05:30:19;94508.94;;;34.43;29.10
21395;BME280;10858;42.714;23.180;2022-08-03T05:32:46;94513.41;;;33.98;29.79
21395;BME280;10858;42.714;23.180;2022-08-03T05:35:12;94517.78;;;33.54;30.71
21395;BME280;10858;42.714;23.180;2022-08-03T05:37:38;94514.03;;;33.03;31.43
21395;BME280;10858;42.714;23.180;2022-08-03T05:40:07;94510.16;;;32.42;32.75
21395;BME280;10858;42.714;23.180;2022-08-03T05:42:36;94512.47;;;30.97;33.90
21395;BME280;10858;42.714;23.180;2022-08-03T05:45:06;94514.44;;;30.20;36.50
21395;BME280;10858;42.714;23.180;2022-08-03T05:47:44;94514.06;;;29.78;38.09
21395;BME280;10858;42.714;23.180;2022-08-03T05:50:11;94517.84;;;30.10;37.34
21395;BME280;10858;42.714;23.180;2022-08-03T05:52:38;94522.69;;;30.03;36.73
21395;BME280;10858;42.714;23.180;2022-08-03T05:55:06;94520.38;;;29.95;37.61
21395;BME280;10858;42.714;23.180;2022-08-03T05:57:33;94520.06;;;29.75;36.97
21395;BME280;10858;42.714;23.180;2022-08-03T06:00:00;94520.81;;;30.26;36.99
21395;BME280;10858;42.714;23.180;2022-08-03T06:02:27;94518.00;;;31.02;35.82
21395;BME280;10858;42.714;23.180;2022-08-03T06:04:53;94518.81;;;31.82;34.92
21395;BME280;10858;42.714;23.180;2022-08-03T06:07:20;94526.91;;;31.67;34.24
21395;BME280;10858;42.714;23.180;2022-08-03T06:09:47;94527.16;;;32.39;32.58
21395;BME280;10858;42.714;23.180;2022-08-03T06:12:13;94522.59;;;32.55;32.75
21395;BME280;10858;42.714;23.180;2022-08-03T06:14:39;94523.72;;;32.59;32.87
21395;BME280;10858;42.714;23.180;2022-08-03T06:17:06;94527.97;;;33.69;31.30
21395;BME280;10858;42.714;23.180;2022-08-03T06:19:32;94532.38;;;33.80;31.36
21395;BME280;10858;42.714;23.180;2022-08-03T06:21:58;94531.19;;;33.30;31.50
21395;BME280;10858;42.714;23.180;2022-08-03T06:24:25;94524.97;;;32.93;33.10
21395;BME280;10858;42.714;23.180;2022-08-03T06:26:51;94526.25;;;33.42;32.04
21395;BME280;10858;42.714;23.180;2022-08-03T06:29:17;94541.47;;;34.25;30.23
21395;BME280;10858;42.714;23.180;2022-08-03T06:31:43;94542.03;;;33.92;29.67
21395;BME280;10858;42.714;23.180;2022-08-03T06:34:10;94538.16;;;34.13;30.76
21395;BME280;10858;42.714;23.180;2022-08-03T06:36:37;94529.00;;;34.73;29.12
21395;BME280;10858;42.714;23.180;2022-08-03T06:39:04;94526.47;;;34.97;29.72
21395;BME280;10858;42.714;23.180;2022-08-03T06:41:30;94538.41;;;34.52;29.83
21395;BME280;10858;42.714;23.180;2022-08-03T06:43:56;94528.44;;;34.76;29.62
21395;BME280;10858;42.714;23.180;2022-08-03T06:46:23;94530.47;;;35.73;28.10
21395;BME280;10858;42.714;23.180;2022-08-03T06:48:49;94528.47;;;36.46;26.94
21395;BME280;10858;42.714;23.180;2022-08-03T06:51:15;94530.38;;;36.51;26.51
21395;BME280;10858;42.714;23.180;2022-08-03T06:53:42;94537.25;;;37.06;25.54
21395;BME280;10858;42.714;23.180;2022-08-03T06:56:08;94544.03;;;37.79;24.78
21395;BME280;10858;42.714;23.180;2022-08-03T06:58:34;94527.47;;;37.37;24.50
21395;BME280;10858;42.714;23.180;2022-08-03T07:01:01;94530.00;;;37.52;25.42
21395;BME280;10858;42.714;23.180;2022-08-03T07:03:27;94522.75;;;37.37;24.52
21395;BME280;10858;42.714;23.180;2022-08-03T07:05:53;94523.75;;;37.23;25.89
21395;BME280;10858;42.714;23.180;2022-08-03T07:08:20;94536.69;;;38.85;24.21
21395;BME280;10858;42.714;23.180;2022-08-03T07:10:46;94535.66;;;38.94;23.60
21395;BME280;10858;42.714;23.180;2022-08-03T07:13:12;94523.56;;;39.31;24.46
21395;BME280;10858;42.714;23.180;2022-08-03T07:15:39;94528.22;;;38.63;23.55
21395;BME280;10858;42.714;23.180;2022-08-03T07:18:05;94522.75;;;37.37;24.82
21395;BME280;10858;42.714;23.180;2022-08-03T07:20:32;94530.09;;;38.03;25.38
21395;BME280;10858;42.714;23.180;2022-08-03T07:22:58;94531.47;;;38.38;24.90
21395;BME280;10858;42.714;23.180;2022-08-03T07:25:24;94529.22;;;37.04;25.37
21395;BME280;10858;42.714;23.180;2022-08-03T07:27:51;94526.16;;;36.82;25.75
21395;BME280;10858;42.714;23.180;2022-08-03T07:30:17;94527.00;;;37.06;25.89
21395;BME280;10858;42.714;23.180;2022-08-03T07:32:44;94528.91;;;37.29;26.60
21395;BME280;10858;42.714;23.180;2022-08-03T07:35:11;94519.81;;;34.93;28.21
21395;BME280;10858;42.714;23.180;2022-08-03T07:37:37;94533.22;;;35.25;29.11
21395;BME280;10858;42.714;23.180;2022-08-03T07:40:04;94522.91;;;35.84;26.85
21395;BME280;10858;42.714;23.180;2022-08-03T07:42:31;94519.84;;;36.53;27.62
21395;BME280;10858;42.714;23.180;2022-08-03T07:44:58;94527.50;;;35.60;27.70
21395;BME280;10858;42.714;23.180;2022-08-03T07:47:26;94530.84;;;37.29;25.71
21395;BME280;10858;42.714;23.180;2022-08-03T07:49:53;94527.09;;;37.81;25.78
21395;BME280;10858;42.714;23.180;2022-08-03T07:52:20;94523.56;;;39.31;24.95
21395;BME280;10858;42.714;23.180;2022-08-03T07:55:06;94528.47;;;37.83;24.83
21395;BME280;10858;42.714;23.180;2022-08-03T07:57:32;94526.84;;;38.47;23.71
21395;BME280;10858;42.714;23.180;2022-08-03T07:59:58;94522.44;;;39.19;22.16
21395;BME280;10858;42.714;23.180;2022-08-03T08:02:25;94526.66;;;37.92;25.65
21395;BME280;10858;42.714;23.180;2022-08-03T08:04:51;94526.31;;;38.90;25.13
21395;BME280;10858;42.714;23.180;2022-08-03T08:07:18;94527.03;;;38.82;23.88
21395;BME280;10858;42.714;23.180;2022-08-03T08:09:44;94528.38;;;38.98;23.13
21395;BME280;10858;42.714;23.180;2022-08-03T08:12:10;94524.69;;;37.74;24.90
21395;BME280;10858;42.714;23.180;2022-08-03T08:14:37;94530.94;;;38.95;26.13
21395;BME280;10858;42.714;23.180;2022-08-03T08:17:04;94532.91;;;38.94;22.91
21395;BME280;10858;42.714;23.180;2022-08-03T08:19:30;94526.50;;;38.35;23.88
21395;BME280;10858;42.714;23.180;2022-08-03T08:21:56;94520.56;;;38.27;22.92
21395;BME280;10858;42.714;23.180;2022-08-03T08:24:23;94536.72;;;38.53;23.81
21395;BME280;10858;42.714;23.180;2022-08-03T08:26:49;94533.22;;;39.06;24.35
21395;BME280;10858;42.714;23.180;2022-08-03T08:29:15;94525.13;;;38.64;24.42
21395;BME280;10858;42.714;23.180;2022-08-03T08:31:41;94526.31;;;38.12;23.51
21395;BME280;10858;42.714;23.180;2022-08-03T08:34:07;94527.69;;;38.61;25.66
21395;BME280;10858;42.714;23.180;2022-08-03T08:36:34;94526.28;;;37.80;25.19
21395;BME280;10858;42.714;23.180;2022-08-03T08:39:01;94518.50;;;37.21;24.30
21395;BME280;10858;42.714;23.180;2022-08-03T08:41:27;94516.47;;;37.32;24.51
21395;BME280;10858;42.714;23.180;2022-08-03T08:43:54;94516.31;;;37.98;23.71
21395;BME280;10858;42.714;23.180;2022-08-03T08:46:20;94509.88;;;35.95;25.87
21395;BME280;10858;42.714;23.180;2022-08-03T08:48:48;94506.28;;;34.96;26.53
21395;BME280;10858;42.714;23.180;2022-08-03T08:51:16;94509.91;;;35.46;26.86
21395;BME280;10858;42.714;23.180;2022-08-03T08:53:46;94512.59;;;35.61;25.65
21395;BME280;10858;42.714;23.180;2022-08-03T08:56:14;94505.38;;;36.04;26.94
21395;BME280;10858;42.714;23.180;2022-08-03T08:58:50;94504.38;;;37.23;25.54
21395;BME280;10858;42.714;23.180;2022-08-03T09:01:19;94508.63;;;38.73;22.39
21395;BME280;10858;42.714;23.180;2022-08-03T09:03:47;94508.97;;;37.88;23.79
21395;BME280;10858;42.714;23.180;2022-08-03T09:06:13;94500.50;;;37.24;24.50
21395;BME280;10858;42.714;23.180;2022-08-03T09:08:40;94502.16;;;36.78;25.77
21395;BME280;10858;42.714;23.180;2022-08-03T09:11:06;94501.63;;;36.99;23.47
21395;BME280;10858;42.714;23.180;2022-08-03T09:13:33;94495.19;;;37.46;23.22
21395;BME280;10858;42.714;23.180;2022-08-03T09:16:17;94499.63;;;37.84;23.27
21395;BME280;10858;42.714;23.180;2022-08-03T09:18:50;94491.31;;;38.16;25.99
21395;BME280;10858;42.714;23.180;2022-08-03T09:23:49;94494.16;;;39.30;22.15
21395;BME280;10858;42.714;23.180;2022-08-03T09:26:27;94489.66;;;37.65;22.60
21395;BME280;10858;42.714;23.180;2022-08-03T09:29:13;94495.09;;;38.39;21.45
21395;BME280;10858;42.714;23.180;2022-08-03T09:31:41;94492.44;;;38.02;21.38
21395;BME280;10858;42.714;23.180;2022-08-03T09:34:09;94490.28;;;38.12;23.80
21395;BME280;10858;42.714;23.180;2022-08-03T09:39:21;94483.84;;;38.17;22.50
21395;BME280;10858;42.714;23.180;2022-08-03T09:44:35;94490.78;;;37.82;21.63
21395;BME280;10858;42.714;23.180;2022-08-03T09:47:02;94491.78;;;38.23;22.44
21395;BME280;10858;42.714;23.180;2022-08-03T09:49:29;94482.06;;;38.07;20.85
21395;BME280;10858;42.714;23.180;2022-08-03T09:51:55;94478.00;;;39.19;20.58
21395;BME280;10858;42.714;23.180;2022-08-03T09:54:29;94476.72;;;39.16;21.75
21395;BME280;10858;42.714;23.180;2022-08-03T09:56:56;94485.03;;;38.29;21.12
21395;BME280;10858;42.714;23.180;2022-08-03T09:59:25;94477.19;;;36.83;22.40
21395;BME280;10858;42.714;23.180;2022-08-03T10:01:53;94476.19;;;37.58;22.58
21395;BME280;10858;42.714;23.180;2022-08-03T10:04:19;94473.09;;;37.22;23.46
21395;BME280;10858;42.714;23.180;2022-08-03T10:07:03;94473.50;;;37.34;24.58
21395;BME280;10858;42.714;23.180;2022-08-03T10:09:29;94470.47;;;38.51;21.37
21395;BME280;10858;42.714;23.180;2022-08-03T10:11:56;94464.72;;;38.34;22.81
21395;BME280;10858;42.714;23.180;2022-08-03T10:14:22;94470.81;;;37.85;22.53
21395;BME280;10858;42.714;23.180;2022-08-03T10:16:51;94462.50;;;38.17;23.70
21395;BME280;10858;42.714;23.180;2022-08-03T10:19:17;94470.34;;;38.43;22.07
21395;BME280;10858;42.714;23.180;2022-08-03T10:21:55;94460.53;;;38.50;23.25
21395;BME280;10858;42.714;23.180;2022-08-03T10:24:27;94464.41;;;37.34;24.88
21395;BME280;10858;42.714;23.180;2022-08-03T10:27:03;94458.38;;;36.32;23.92
21395;BME280;10858;42.714;23.180;2022-08-03T10:29:37;94451.28;;;34.66;28.09
21395;BME280;10858;42.714;23.180;2022-08-03T10:32:18;94444.75;;;34.37;30.65
21395;BME280;10858;42.714;23.180;2022-08-03T10:34:46;94453.09;;;34.07;30.34
21395;BME280;10858;42.714;23.180;2022-08-03T10:37:17;94448.16;;;33.79;27.34
21395;BME280;10858;42.714;23.180;2022-08-03T10:39:44;94451.84;;;32.87;28.50
21395;BME280;10858;42.714;23.180;2022-08-03T10:42:23;94447.34;;;32.61;29.88
21395;BME280;10858;42.714;23.180;2022-08-03T10:45:04;94442.44;;;32.11;31.94
21395;BME280;10858;42.714;23.180;2022-08-03T10:47:31;94434.13;;;31.96;29.52
21395;BME280;10858;42.714;23.180;2022-08-03T10:49:59;94437.41;;;32.45;27.92
21395;BME280;10858;42.714;23.180;2022-08-03T10:52:26;94439.59;;;33.40;28.09
21395;BME280;10858;42.714;23.180;2022-08-03T10:54:52;94430.00;;;35.64;28.60
21395;BME280;10858;42.714;23.180;2022-08-03T10:57:51;94437.56;;;37.48;22.73
21395;BME280;10858;42.714;23.180;2022-08-03T11:00:20;94432.56;;;37.13;23.01
21395;BME280;10858;42.714;23.180;2022-08-03T11:03:07;94423.09;;;36.24;23.68
21395;BME280;10858;42.714;23.180;2022-08-03T11:05:36;94428.19;;;35.11;25.98
21395;BME280;10858;42.714;23.180;2022-08-03T11:08:25;94428.94;;;34.73;27.43
21395;BME280;10858;42.714;23.180;2022-08-03T11:10:54;94427.38;;;36.12;25.72
21395;BME280;10858;42.714;23.180;2022-08-03T11:13:23;94422.28;;;37.69;24.91
21395;BME280;10858;42.714;23.180;2022-08-03T11:15:53;94420.56;;;36.99;25.00
21395;BME280;10858;42.714;23.180;2022-08-03T11:18:20;94429.19;;;37.72;23.06
21395;BME280;10858;42.714;23.180;2022-08-03T11:26:16;94429.94;;;37.03;24.45
21395;BME280;10858;42.714;23.180;2022-08-03T11:28:44;94432.97;;;33.96;28.55
21395;BME280;10858;42.714;23.180;2022-08-03T11:34:09;94417.78;;;32.21;32.61
21395;BME280;10858;42.714;23.180;2022-08-03T11:39:43;94421.75;;;30.72;33.15
21395;BME280;10858;42.714;23.180;2022-08-03T11:47:24;94417.38;;;30.49;34.46
21395;BME280;10858;42.714;23.180;2022-08-03T11:49:55;94422.97;;;30.16;36.88
21395;BME280;10858;42.714;23.180;2022-08-03T11:52:24;94427.25;;;29.52;38.36
21395;BME280;10858;42.714;23.180;2022-08-03T11:54:51;94433.19;;;28.71;38.27
21395;BME280;10858;42.714;23.180;2022-08-03T11:57:31;94426.63;;;28.44;39.34
21395;BME280;10858;42.714;23.180;2022-08-03T11:59:57;94427.44;;;28.56;39.69
21395;BME280;10858;42.714;23.180;2022-08-03T12:02:24;94423.84;;;28.67;39.50
21395;BME280;10858;42.714;23.180;2022-08-03T12:04:51;94428.06;;;28.75;38.15
21395;BME280;10858;42.714;23.180;2022-08-03T12:07:18;94421.41;;;28.42;39.25
21395;BME280;10858;42.714;23.180;2022-08-03T12:10:07;94427.06;;;28.52;40.12
21395;BME280;10858;42.714;23.180;2022-08-03T12:12:33;94416.50;;;28.56;39.18
21395;BME280;10858;42.714;23.180;2022-08-03T12:15:00;94421.19;;;28.72;39.66
21395;BME280;10858;42.714;23.180;2022-08-03T12:17:37;94422.72;;;28.80;37.15
21395;BME280;10858;42.714;23.180;2022-08-03T12:20:05;94416.19;;;28.97;39.84
21395;BME280;10858;42.714;23.180;2022-08-03T12:22:36;94417.72;;;29.38;38.18
21395;BME280;10858;42.714;23.180;2022-08-03T12:25:06;94411.63;;;30.07;39.81
21395;BME280;10858;42.714;23.180;2022-08-03T12:27:33;94411.31;;;30.26;39.15
21395;BME280;10858;42.714;23.180;2022-08-03T12:30:00;94403.38;;;30.24;38.51
21395;BME280;10858;42.714;23.180;2022-08-03T12:32:28;94404.28;;;30.30;37.83
21395;BME280;10858;42.714;23.180;2022-08-03T12:34:56;94399.03;;;30.28;38.59
21395;BME280;10858;42.714;23.180;2022-08-03T12:37:31;94403.91;;;30.04;38.12
21395;BME280;10858;42.714;23.180;2022-08-03T12:39:59;94394.31;;;30.45;41.25
21395;BME280;10858;42.714;23.180;2022-08-03T12:42:36;94400.97;;;30.76;39.12
21395;BME280;10858;42.714;23.180;2022-08-03T12:45:19;94393.94;;;30.85;41.36
21395;BME280;10858;42.714;23.180;2022-08-03T12:47:57;94394.94;;;30.79;39.22
21395;BME280;10858;42.714;23.180;2022-08-03T12:50:32;94398.72;;;30.73;39.76
21395;BME280;10858;42.714;23.180;2022-08-03T12:53:00;94399.53;;;30.95;38.85
21395;BME280;10858;42.714;23.180;2022-08-03T12:55:27;94402.69;;;30.34;39.98
21395;BME280;10858;42.714;23.180;2022-08-03T12:58:05;94395.91;;;29.98;40.40
21395;BME280;10858;42.714;23.180;2022-08-03T13:00:35;94386.56;;;29.94;39.32
21395;BME280;10858;42.714;23.180;2022-08-03T13:03:06;94381.63;;;29.74;39.64
21395;BME280;10858;42.714;23.180;2022-08-03T13:05:42;94389.88;;;29.41;41.87
21395;BME280;10858;42.714;23.180;2022-08-03T13:08:23;94387.22;;;29.84;42.79
21395;BME280;10858;42.714;23.180;2022-08-03T13:10:50;94382.03;;;30.04;41.93
21395;BME280;10858;42.714;23.180;2022-08-03T13:13:16;94379.94;;;30.33;42.92
21395;BME280;10858;42.714;23.180;2022-08-03T13:15:42;94373.75;;;30.43;40.59
21395;BME280;10858;42.714;23.180;2022-08-03T13:18:09;94372.56;;;30.34;42.90
21395;BME280;10858;42.714;23.180;2022-08-03T13:20:35;94381.34;;;30.84;42.20
21395;BME280;10858;42.714;23.180;2022-08-03T13:23:02;94375.75;;;30.74;41.93
21395;BME280;10858;42.714;23.180;2022-08-03T13:25:28;94379.88;;;30.28;41.45
21395;BME280;10858;42.714;23.180;2022-08-03T13:27:54;94380.50;;;30.13;39.98
21395;BME280;10858;42.714;23.180;2022-08-03T13:30:20;94383.09;;;30.25;41.42
21395;BME280;10858;42.714;23.180;2022-08-03T13:32:47;94374.59;;;30.43;41.74
21395;BME280;10858;42.714;23.180;2022-08-03T13:35:13;94383.44;;;30.50;42.71
21395;BME280;10858;42.714;23.180;2022-08-03T13:37:40;94378.13;;;30.65;42.44